sensor_id;sensor_type;location;lat;lon;timestamp;pressure;altitude;pressure_sealevel;temperature;humidity
17383;BME280;8809;51.892;8.384;2022-09-09T00:00:25;99883.13;;;16.01;100.00
17383;BME280;8809;51.892;8.384;2022-09-09T00:03:02;99877.84;;;16.01;100.00
17383;BME280;8809;51.892;8.384;2022-09-09T00:05:38;99877.84;;;16.00;100.00
17383;BME280;8809;51.892;8.384;2022-09-09T00:08:15;99876.06;;;15.99;100.00
17383;BME280;8809;51.892;8.384;2022-09-09T00:10:48;99875.16;;;15.96;100.00
17383;BME280;8809;51.892;8.384;2022-09-09T00:13:22;99872.53;;;15.96;100.00
17383;BME280;8809;51.892;8.384;2022-09-09T00:15:55;99876.94;;;15.98;100.00
17383;BME280;8809;51.892;8.384;2022-09-09T00:18:29;99867.28;;;15.96;100.00
17383;BME280;8809;51.892;8.384;2022-09-09T00:21:03;99875.16;;;15.96;100.00
17383;BME280;8809;51.892;8.384;2022-09-09T00:23:35;99877.81;;;15.96;100.00
17383;BME280;8809;51.892;8.384;2022-09-09T00:26:09;99879.56;;;15.98;100.00
17383;BME280;8809;51.892;8.384;2022-09-09T00:28:41;99883.97;;;15.99;100.00
17383;BME280;8809;51.892;8.384;2022-09-09T00:31:14;99883.09;;;16.00;100.00
17383;BME280;8809;51.892;8.384;2022-09-09T00:33:45;99893.63;;;16.00;100.00
17383;BME280;8809;51.892;8.384;2022-09-09T00:36:15;99887.50;;;16.02;100.00
17383;BME280;8809;51.892;8.384;2022-09-09T00:38:48;99884.00;;;16.03;100.00
17383;BME280;8809;51.892;8.384;2022-09-09T00:41:21;99875.25;;;16.06;100.00
17383;BME280;8809;51.892;8.384;2022-09-09T00:44:15;99875.28;;;16.09;100.00
17383;BME280;8809;51.892;8.384;2022-09-09T00:46:59;99877.03;;;16.10;100.00
17383;BME280;8809;51.892;8.384;2022-09-09T00:49:40;99882.31;;;16.11;100.00
17383;BME280;8809;51.892;8.384;2022-09-09T00:52:22;99877.06;;;16.13;100.00
17383;BME280;8809;51.892;8.384;2022-09-09T00:55:03;99867.41;;;16.15;100.00
17383;BME280;8809;51.892;8.384;2022-09-09T00:57:33;99878.81;;;16.15;100.00
17383;BME280;8809;51.892;8.384;2022-09-09T01:00:18;99871.81;;;16.16;100.00
17383;BME280;8809;51.892;8.384;2022-09-09T01:02:53;99873.56;;;16.15;100.00
17383;BME280;8809;51.892;8.384;2022-09-09T01:05:30;99885.84;;;16.16;100.00
17383;BME280;8809;51.892;8.384;2022-09-09T01:08:01;99888.47;;;16.16;100.00
17383;BME280;8809;51.892;8.384;2022-09-09T01:10:38;99879.72;;;16.16;100.00
17383;BME280;8809;51.892;8.384;2022-09-09T01:13:13;99880.59;;;16.16;100.00
17383;BME280;8809;51.892;8.384;2022-09-09T01:15:42;99873.56;;;16.15;100.00
17383;BME280;8809;51.892;8.384;2022-09-09T01:18:14;99871.81;;;16.16;100.00
17383;BME280;8809;51.892;8.384;2022-09-09T01:20:50;99876.19;;;16.15;100.00
17383;BME280;8809;51.892;8.384;2022-09-09T01:23:34;99867.41;;;16.15;100.00
17383;BME280;8809;51.892;8.384;2022-09-09T01:26:16;99880.56;;;16.15;100.00
17383;BME280;8809;51.892;8.384;2022-09-09T01:28:46;99872.69;;;16.15;100.00
17383;BME280;8809;51.892;8.384;2022-09-09T01:31:17;99874.44;;;16.16;100.00
17383;BME280;8809;51.892;8.384;2022-09-09T01:33:45;99866.53;;;16.16;100.00
17383;BME280;8809;51.892;8.384;2022-09-09T01:36:15;99874.47;;;16.17;100.00
17383;BME280;8809;51.892;8.384;2022-09-09T01:38:43;99868.31;;;16.17;100.00
17383;BME280;8809;51.892;8.384;2022-09-09T01:41:10;99863.06;;;16.17;100.00
17383;BME280;8809;51.892;8.384;2022-09-09T01:43:38;99873.56;;;16.17;100.00
17383;BME280;8809;51.892;8.384;2022-09-09T01:46:05;99879.72;;;16.16;100.00
17383;BME280;8809;51.892;8.384;2022-09-09T01:48:33;99878.81;;;16.15;100.00
17383;BME280;8809;51.892;8.384;2022-09-09T01:51:00;99866.56;;;16.14;100.00
17383;BME280;8809;51.892;8.384;2022-09-09T01:53:27;99864.78;;;16.15;100.00
17383;BME280;8809;51.892;8.384;2022-09-09T01:56:02;99868.28;;;16.15;100.00
17383;BME280;8809;51.892;8.384;2022-09-09T01:58:47;99865.66;;;16.15;100.00
17383;BME280;8809;51.892;8.384;2022-09-09T02:01:24;99867.41;;;16.15;100.00
17383;BME280;8809;51.892;8.384;2022-09-09T02:03:57;99871.81;;;16.16;100.00
17383;BME280;8809;51.892;8.384;2022-09-09T02:06:27;99866.53;;;16.16;100.00
17383;BME280;8809;51.892;8.384;2022-09-09T02:08:57;99862.16;;;16.15;100.00
17383;BME280;8809;51.892;8.384;2022-09-09T02:11:27;99864.78;;;16.15;100.00
17383;BME280;8809;51.892;8.384;2022-09-09T02:14:00;99861.31;;;16.14;100.00
17383;BME280;8809;51.892;8.384;2022-09-09T02:16:30;99860.41;;;16.14;100.00
17383;BME280;8809;51.892;8.384;2022-09-09T02:19:02;99860.41;;;16.14;100.00
17383;BME280;8809;51.892;8.384;2022-09-09T02:21:33;99854.28;;;16.13;100.00
17383;BME280;8809;51.892;8.384;2022-09-09T02:24:04;99861.28;;;16.13;100.00
17383;BME280;8809;51.892;8.384;2022-09-09T02:26:37;99865.69;;;16.14;100.00
17383;BME280;8809;51.892;8.384;2022-09-09T02:29:18;99864.78;;;16.12;100.00
17383;BME280;8809;51.892;8.384;2022-09-09T02:32:24;99871.78;;;16.11;100.00
17383;BME280;8809;51.892;8.384;2022-09-09T02:35:37;99872.66;;;16.10;100.00
17383;BME280;8809;51.892;8.384;2022-09-09T02:38:08;99870.03;;;16.10;100.00
17383;BME280;8809;51.892;8.384;2022-09-09T02:40:37;99878.81;;;16.11;100.00
17383;BME280;8809;51.892;8.384;2022-09-09T02:43:04;99874.41;;;16.10;100.00
17383;BME280;8809;51.892;8.384;2022-09-09T02:45:38;99873.53;;;16.11;100.00
17383;BME280;8809;51.892;8.384;2022-09-09T02:48:13;99870.91;;;16.11;100.00
17383;BME280;8809;51.892;8.384;2022-09-09T02:50:47;99870.91;;;16.11;100.00
17383;BME280;8809;51.892;8.384;2022-09-09T02:53:24;99870.91;;;16.09;100.00
17383;BME280;8809;51.892;8.384;2022-09-09T02:55:56;99868.25;;;16.09;100.00
17383;BME280;8809;51.892;8.384;2022-09-09T02:58:24;99874.38;;;16.08;100.00
17383;BME280;8809;51.892;8.384;2022-09-09T03:00:53;99874.38;;;16.08;100.00
17383;BME280;8809;51.892;8.384;2022-09-09T03:03:20;99879.66;;;16.08;100.00
17383;BME280;8809;51.892;8.384;2022-09-09T03:05:47;99875.25;;;16.07;100.00
17383;BME280;8809;51.892;8.384;2022-09-09T03:08:14;99872.63;;;16.07;100.00
17383;BME280;8809;51.892;8.384;2022-09-09T03:10:41;99878.78;;;16.08;100.00
17383;BME280;8809;51.892;8.384;2022-09-09T03:13:08;99880.53;;;16.07;100.00
17383;BME280;8809;51.892;8.384;2022-09-09T03:15:35;99874.38;;;16.07;100.00
17383;BME280;8809;51.892;8.384;2022-09-09T03:18:04;99877.00;;;16.07;100.00
17383;BME280;8809;51.892;8.384;2022-09-09T03:20:31;99873.50;;;16.06;100.00
17383;BME280;8809;51.892;8.384;2022-09-09T03:22:59;99878.75;;;16.06;100.00
17383;BME280;8809;51.892;8.384;2022-09-09T03:25:28;99874.34;;;16.05;100.00
17383;BME280;8809;51.892;8.384;2022-09-09T03:27:55;99877.88;;;16.06;100.00
17383;BME280;8809;51.892;8.384;2022-09-09T03:30:23;99873.50;;;16.05;100.00
17383;BME280;8809;51.892;8.384;2022-09-09T03:32:50;99884.03;;;16.05;100.00
17383;BME280;8809;51.892;8.384;2022-09-09T03:35:18;99882.25;;;16.05;100.00
17383;BME280;8809;51.892;8.384;2022-09-09T03:37:45;99881.41;;;16.05;100.00
17383;BME280;8809;51.892;8.384;2022-09-09T03:40:12;99875.25;;;16.04;100.00
17383;BME280;8809;51.892;8.384;2022-09-09T03:42:40;99867.38;;;16.04;100.00
17383;BME280;8809;51.892;8.384;2022-09-09T03:45:08;99865.59;;;16.03;100.00
17383;BME280;8809;51.892;8.384;2022-09-09T03:47:36;99867.34;;;16.03;100.00
17383;BME280;8809;51.892;8.384;2022-09-09T03:50:03;99869.09;;;16.02;100.00
17383;BME280;8809;51.892;8.384;2022-09-09T03:52:35;99868.22;;;16.03;100.00
17383;BME280;8809;51.892;8.384;2022-09-09T03:55:03;99862.09;;;16.03;100.00
17383;BME280;8809;51.892;8.384;2022-09-09T03:57:30;99862.09;;;16.03;100.00
17383;BME280;8809;51.892;8.384;2022-09-09T03:59:57;99869.09;;;16.04;100.00
17383;BME280;8809;51.892;8.384;2022-09-09T04:02:26;99873.50;;;16.03;100.00
17383;BME280;8809;51.892;8.384;2022-09-09T04:04:53;99875.25;;;16.03;100.00
17383;BME280;8809;51.892;8.384;2022-09-09T04:07:19;99873.50;;;16.03;100.00
17383;BME280;8809;51.892;8.384;2022-09-09T04:09:48;99874.34;;;16.02;100.00
17383;BME280;8809;51.892;8.384;2022-09-09T04:12:15;99874.34;;;16.01;100.00
17383;BME280;8809;51.892;8.384;2022-09-09T04:14:42;99868.19;;;15.99;100.00
17383;BME280;8809;51.892;8.384;2022-09-09T04:17:08;99868.19;;;15.99;100.00
17383;BME280;8809;51.892;8.384;2022-09-09T04:19:35;99871.72;;;16.01;100.00
17383;BME280;8809;51.892;8.384;2022-09-09T04:22:02;99876.09;;;16.02;100.00
17383;BME280;8809;51.892;8.384;2022-09-09T04:24:30;99862.94;;;16.02;100.00
17383;BME280;8809;51.892;8.384;2022-09-09T04:26:58;99868.22;;;16.03;100.00
17383;BME280;8809;51.892;8.384;2022-09-09T04:29:25;99862.09;;;16.03;100.00
17383;BME280;8809;51.892;8.384;2022-09-09T04:31:51;99867.34;;;16.03;100.00
17383;BME280;8809;51.892;8.384;2022-09-09T04:34:18;99863.84;;;16.04;100.00
17383;BME280;8809;51.892;8.384;2022-09-09T04:36:45;99865.63;;;16.05;100.00
17383;BME280;8809;51.892;8.384;2022-09-09T04:39:12;99869.09;;;16.05;100.00
17383;BME280;8809;51.892;8.384;2022-09-09T04:41:40;99862.97;;;16.05;100.00
17383;BME280;8809;51.892;8.384;2022-09-09T04:44:08;99868.25;;;16.05;100.00
17383;BME280;8809;51.892;8.384;2022-09-09T04:46:35;99864.72;;;16.04;100.00
17383;BME280;8809;51.892;8.384;2022-09-09T04:49:02;99869.09;;;16.04;100.00
17383;BME280;8809;51.892;8.384;2022-09-09T04:51:29;99871.75;;;16.04;100.00
17383;BME280;8809;51.892;8.384;2022-09-09T04:53:57;99877.00;;;16.02;100.00
17383;BME280;8809;51.892;8.384;2022-09-09T04:56:24;99874.34;;;16.01;100.00
17383;BME280;8809;51.892;8.384;2022-09-09T04:58:52;99879.59;;;16.01;100.00
17383;BME280;8809;51.892;8.384;2022-09-09T05:01:22;99875.22;;;16.01;100.00
17383;BME280;8809;51.892;8.384;2022-09-09T05:03:49;99876.09;;;16.02;100.00
17383;BME280;8809;51.892;8.384;2022-09-09T05:06:18;99875.19;;;16.00;100.00
17383;BME280;8809;51.892;8.384;2022-09-09T05:08:45;99876.97;;;16.01;100.00
17383;BME280;8809;51.892;8.384;2022-09-09T05:11:18;99880.47;;;16.01;100.00
17383;BME280;8809;51.892;8.384;2022-09-09T05:13:45;99881.34;;;15.99;100.00
17383;BME280;8809;51.892;8.384;2022-09-09T05:16:13;99886.59;;;15.99;100.00
17383;BME280;8809;51.892;8.384;2022-09-09T05:18:41;99889.22;;;15.99;100.00
17383;BME280;8809;51.892;8.384;2022-09-09T05:21:09;99890.09;;;15.99;100.00
17383;BME280;8809;51.892;8.384;2022-09-09T05:23:37;99890.97;;;15.98;100.00
17383;BME280;8809;51.892;8.384;2022-09-09T05:26:04;99898.00;;;15.99;100.00
17383;BME280;8809;51.892;8.384;2022-09-09T05:28:33;99889.22;;;15.99;100.00
17383;BME280;8809;51.892;8.384;2022-09-09T05:31:02;99886.63;;;16.00;100.00
17383;BME280;8809;51.892;8.384;2022-09-09T05:33:31;99888.34;;;16.00;100.00
17383;BME280;8809;51.892;8.384;2022-09-09T05:36:01;99887.50;;;16.02;100.00
17383;BME280;8809;51.892;8.384;2022-09-09T05:38:29;99888.41;;;16.03;100.00
17383;BME280;8809;51.892;8.384;2022-09-09T05:40:56;99884.00;;;16.03;100.00
17383;BME280;8809;51.892;8.384;2022-09-09T05:43:23;99892.78;;;16.04;100.00
17383;BME280;8809;51.892;8.384;2022-09-09T05:45:59;99891.94;;;16.05;100.00
17383;BME280;8809;51.892;8.384;2022-09-09T05:48:28;99886.66;;;16.06;100.00
17383;BME280;8809;51.892;8.384;2022-09-09T05:50:56;99894.56;;;16.08;100.00
17383;BME280;8809;51.892;8.384;2022-09-09T05:53:24;99892.81;;;16.08;100.00
17383;BME280;8809;51.892;8.384;2022-09-09T05:55:58;99887.56;;;16.10;100.00
17383;BME280;8809;51.892;8.384;2022-09-09T05:58:25;99890.19;;;16.10;100.00
17383;BME280;8809;51.892;8.384;2022-09-09T06:00:53;99899.00;;;16.12;100.00
17383;BME280;8809;51.892;8.384;2022-09-09T06:03:26;99894.63;;;16.14;100.00
17383;BME280;8809;51.892;8.384;2022-09-09T06:05:57;99895.50;;;16.16;100.00
17383;BME280;8809;51.892;8.384;2022-09-09T06:08:26;99897.25;;;16.17;100.00
17383;BME280;8809;51.892;8.384;2022-09-09T06:10:53;99890.25;;;16.19;100.00
17383;BME280;8809;51.892;8.384;2022-09-09T06:13:20;99897.28;;;16.20;100.00
17383;BME280;8809;51.892;8.384;2022-09-09T06:15:50;99894.69;;;16.21;100.00
17383;BME280;8809;51.892;8.384;2022-09-09T06:18:17;99899.06;;;16.25;100.00
17383;BME280;8809;51.892;8.384;2022-09-09T06:20:53;99899.97;;;16.27;100.00
17383;BME280;8809;51.892;8.384;2022-09-09T06:23:20;99896.50;;;16.30;100.00
17383;BME280;8809;51.892;8.384;2022-09-09T06:25:49;99892.13;;;16.32;100.00
17383;BME280;8809;51.892;8.384;2022-09-09T06:28:16;99892.13;;;16.35;100.00
17383;BME280;8809;51.892;8.384;2022-09-09T06:30:44;99893.00;;;16.36;100.00
17383;BME280;8809;51.892;8.384;2022-09-09T06:33:12;99883.38;;;16.36;100.00
17383;BME280;8809;51.892;8.384;2022-09-09T06:35:39;99884.25;;;16.38;100.00
17383;BME280;8809;51.892;8.384;2022-09-09T06:38:06;99895.69;;;16.40;100.00
17383;BME280;8809;51.892;8.384;2022-09-09T06:40:34;99895.69;;;16.40;100.00
17383;BME280;8809;51.892;8.384;2022-09-09T06:43:02;99893.97;;;16.42;100.00
17383;BME280;8809;51.892;8.384;2022-09-09T06:45:29;99898.34;;;16.45;100.00
17383;BME280;8809;51.892;8.384;2022-09-09T06:47:56;99897.47;;;16.47;100.00
17383;BME280;8809;51.892;8.384;2022-09-09T06:50:23;99902.78;;;16.50;100.00
17383;BME280;8809;51.892;8.384;2022-09-09T06:52:55;99901.03;;;16.52;100.00
17383;BME280;8809;51.892;8.384;2022-09-09T06:55:30;99907.19;;;16.54;100.00
17383;BME280;8809;51.892;8.384;2022-09-09T06:58:09;99903.66;;;16.55;100.00
17383;BME280;8809;51.892;8.384;2022-09-09T07:00:36;99913.34;;;16.56;100.00
17383;BME280;8809;51.892;8.384;2022-09-09T07:03:04;99911.59;;;16.58;100.00
17383;BME280;8809;51.892;8.384;2022-09-09T07:05:40;99909.88;;;16.60;100.00
17383;BME280;8809;51.892;8.384;2022-09-09T07:08:55;99907.25;;;16.63;100.00
17383;BME280;8809;51.892;8.384;2022-09-09T07:15:43;99923.09;;;16.68;100.00
17383;BME280;8809;51.892;8.384;2022-09-09T07:18:39;99917.00;;;16.71;100.00
17383;BME280;8809;51.892;8.384;2022-09-09T07:21:06;99913.47;;;16.75;100.00
17383;BME280;8809;51.892;8.384;2022-09-09T07:23:34;99917.00;;;16.77;100.00
17383;BME280;8809;51.892;8.384;2022-09-09T07:26:02;99915.28;;;16.79;100.00
17383;BME280;8809;51.892;8.384;2022-09-09T07:28:30;99916.16;;;16.82;100.00
17383;BME280;8809;51.892;8.384;2022-09-09T07:30:59;99917.94;;;16.86;100.00
17383;BME280;8809;51.892;8.384;2022-09-09T07:33:28;99918.84;;;16.90;100.00
17383;BME280;8809;51.892;8.384;2022-09-09T07:36:02;99916.22;;;16.93;100.00
17383;BME280;8809;51.892;8.384;2022-09-09T07:38:30;99925.88;;;16.95;100.00
17383;BME280;8809;51.892;8.384;2022-09-09T07:41:03;99916.25;;;16.99;100.00
17383;BME280;8809;51.892;8.384;2022-09-09T07:43:30;99918.00;;;17.03;100.00
17383;BME280;8809;51.892;8.384;2022-09-09T07:45:59;99919.78;;;17.05;100.00
17383;BME280;8809;51.892;8.384;2022-09-09T07:48:26;99911.03;;;17.11;100.00
17383;BME280;8809;51.892;8.384;2022-09-09T07:54:45;99919.84;;;17.21;100.00
17383;BME280;8809;51.892;8.384;2022-09-09T07:57:35;99920.78;;;17.27;100.00
17383;BME280;8809;51.892;8.384;2022-09-09T08:00:26;99928.72;;;17.36;100.00
17383;BME280;8809;51.892;8.384;2022-09-09T08:02:55;99914.66;;;17.42;100.00
17383;BME280;8809;51.892;8.384;2022-09-09T08:05:22;99918.19;;;17.50;100.00
17383;BME280;8809;51.892;8.384;2022-09-09T08:08:00;99914.72;;;17.57;100.00
17383;BME280;8809;51.892;8.384;2022-09-09T08:10:39;99914.69;;;17.62;100.00
17383;BME280;8809;51.892;8.384;2022-09-09T08:13:36;99916.50;;;17.70;100.00
17383;BME280;8809;51.892;8.384;2022-09-09T08:16:27;99913.00;;;17.82;100.00
17383;BME280;8809;51.892;8.384;2022-09-09T08:19:13;99910.38;;;17.91;100.00
17383;BME280;8809;51.892;8.384;2022-09-09T08:21:49;99926.22;;;18.02;100.00
17383;BME280;8809;51.892;8.384;2022-09-09T08:24:21;99924.47;;;18.05;100.00
17383;BME280;8809;51.892;8.384;2022-09-09T08:26:49;99931.53;;;18.06;100.00
17383;BME280;8809;51.892;8.384;2022-09-09T08:29:41;99936.78;;;18.09;100.00
17383;BME280;8809;51.892;8.384;2022-09-09T08:32:11;99933.28;;;18.10;100.00
17383;BME280;8809;51.892;8.384;2022-09-09T08:34:41;99935.03;;;18.13;100.00
17383;BME280;8809;51.892;8.384;2022-09-09T08:37:07;99939.44;;;18.15;100.00
17383;BME280;8809;51.892;8.384;2022-09-09T08:39:34;99936.78;;;18.20;100.00
17383;BME280;8809;51.892;8.384;2022-09-09T08:42:13;99944.69;;;18.26;100.00
17383;BME280;8809;51.892;8.384;2022-09-09T08:44:54;99948.22;;;18.40;100.00
17383;BME280;8809;51.892;8.384;2022-09-09T08:47:32;99946.47;;;18.42;100.00
17383;BME280;8809;51.892;8.384;2022-09-09T08:50:16;99954.38;;;18.38;100.00
17383;BME280;8809;51.892;8.384;2022-09-09T08:52:52;99949.97;;;18.37;100.00
17383;BME280;8809;51.892;8.384;2022-09-09T08:55:25;99957.94;;;18.34;100.00
17383;BME280;8809;51.892;8.384;2022-09-09T08:57:56;99960.56;;;18.32;100.00
17383;BME280;8809;51.892;8.384;2022-09-09T09:00:29;99960.56;;;18.32;100.00
17383;BME280;8809;51.892;8.384;2022-09-09T09:03:06;99962.34;;;18.33;100.00
17383;BME280;8809;51.892;8.384;2022-09-09T09:05:46;99964.09;;;18.34;100.00
17383;BME280;8809;51.892;8.384;2022-09-09T09:08:19;99967.63;;;18.33;100.00
17383;BME280;8809;51.892;8.384;2022-09-09T09:10:50;99965.84;;;18.32;100.00
17383;BME280;8809;51.892;8.384;2022-09-09T09:13:20;99961.44;;;18.33;100.00
17383;BME280;8809;51.892;8.384;2022-09-09T09:15:53;99955.25;;;18.46;100.00
17383;BME280;8809;51.892;8.384;2022-09-09T09:18:22;99956.19;;;18.60;100.00
17383;BME280;8809;51.892;8.384;2022-09-09T09:20:57;99954.41;;;18.71;100.00
17383;BME280;8809;51.892;8.384;2022-09-09T09:23:34;99951.72;;;18.85;100.00
17383;BME280;8809;51.892;8.384;2022-09-09T09:26:07;99943.72;;;19.05;100.00
17383;BME280;8809;51.892;8.384;2022-09-09T09:28:36;99952.50;;;19.22;100.00
17383;BME280;8809;51.892;8.384;2022-09-09T09:31:06;99953.31;;;19.39;100.00
17383;BME280;8809;51.892;8.384;2022-09-09T09:33:35;99954.16;;;19.44;98.68
17383;BME280;8809;51.892;8.384;2022-09-09T09:36:07;99950.63;;;19.45;96.21
17383;BME280;8809;51.892;8.384;2022-09-09T09:38:36;99969.19;;;19.48;95.10
17383;BME280;8809;51.892;8.384;2022-09-09T09:41:03;99948.00;;;19.48;95.10
17383;BME280;8809;51.892;8.384;2022-09-09T09:43:31;99949.72;;;19.58;95.50
17383;BME280;8809;51.892;8.384;2022-09-09T09:45:59;99947.97;;;19.51;94.27
17383;BME280;8809;51.892;8.384;2022-09-09T09:48:27;99948.84;;;19.53;95.88
17383;BME280;8809;51.892;8.384;2022-09-09T09:50:56;99954.16;;;19.53;94.51
17383;BME280;8809;51.892;8.384;2022-09-09T09:53:26;99946.19;;;19.56;94.55
17383;BME280;8809;51.892;8.384;2022-09-09T09:55:58;99951.44;;;19.69;95.24
17383;BME280;8809;51.892;8.384;2022-09-09T09:58:26;99943.38;;;19.84;95.56
17383;BME280;8809;51.892;8.384;2022-09-09T10:00:55;99952.13;;;19.96;94.43
17383;BME280;8809;51.892;8.384;2022-09-09T10:03:27;99946.72;;;20.13;95.55
17383;BME280;8809;51.892;8.384;2022-09-09T10:05:57;99949.28;;;20.25;95.24
17383;BME280;8809;51.892;8.384;2022-09-09T10:08:27;99954.50;;;20.38;96.64
17383;BME280;8809;51.892;8.384;2022-09-09T10:11:18;99967.75;;;20.28;91.14
17383;BME280;8809;51.892;8.384;2022-09-09T10:13:55;99966.88;;;20.37;91.50
17383;BME280;8809;51.892;8.384;2022-09-09T10:16:32;99975.72;;;20.36;89.50
17383;BME280;8809;51.892;8.384;2022-09-09T10:19:04;99968.66;;;20.35;89.30
17383;BME280;8809;51.892;8.384;2022-09-09T10:22:01;99969.50;;;20.34;89.83
17383;BME280;8809;51.892;8.384;2022-09-09T10:27:27;99970.44;;;20.34;90.12
17383;BME280;8809;51.892;8.384;2022-09-09T10:30:03;99966.88;;;20.35;90.31
17383;BME280;8809;51.892;8.384;2022-09-09T10:32:40;99958.09;;;20.24;91.03
17383;BME280;8809;51.892;8.384;2022-09-09T10:35:19;99963.34;;;20.30;91.89
17383;BME280;8809;51.892;8.384;2022-09-09T10:38:14;99954.50;;;20.38;92.13
17383;BME280;8809;51.892;8.384;2022-09-09T10:41:09;99943.03;;;20.35;89.98
17383;BME280;8809;51.892;8.384;2022-09-09T10:43:52;99950.03;;;20.41;90.74
17383;BME280;8809;51.892;8.384;2022-09-09T10:46:33;99947.38;;;20.44;89.76
17383;BME280;8809;51.892;8.384;2022-09-09T10:49:16;99953.56;;;20.45;88.22
17383;BME280;8809;51.892;8.384;2022-09-09T10:51:53;99936.75;;;20.47;89.93
17383;BME280;8809;51.892;8.384;2022-09-09T10:54:30;99942.88;;;20.51;89.88
17383;BME280;8809;51.892;8.384;2022-09-09T10:57:03;99936.69;;;20.53;89.46
17383;BME280;8809;51.892;8.384;2022-09-09T10:59:39;99934.03;;;20.55;88.94
17383;BME280;8809;51.892;8.384;2022-09-09T11:02:14;99943.69;;;20.62;86.89
17383;BME280;8809;51.892;8.384;2022-09-09T11:04:48;99925.09;;;20.65;87.29
17383;BME280;8809;51.892;8.384;2022-09-09T11:07:26;99934.75;;;20.72;87.33
17383;BME280;8809;51.892;8.384;2022-09-09T11:09:59;99931.09;;;20.84;84.65
17383;BME280;8809;51.892;8.384;2022-09-09T11:12:30;99923.94;;;20.89;83.47
17383;BME280;8809;51.892;8.384;2022-09-09T11:15:04;99922.03;;;21.03;82.98
17383;BME280;8809;51.892;8.384;2022-09-09T11:17:36;99924.50;;;21.17;83.73
17383;BME280;8809;51.892;8.384;2022-09-09T11:20:11;99921.53;;;21.44;83.14
17383;BME280;8809;51.892;8.384;2022-09-09T11:22:46;99924.16;;;21.47;80.85
17383;BME280;8809;51.892;8.384;2022-09-09T11:25:18;99926.03;;;21.37;79.30
17383;BME280;8809;51.892;8.384;2022-09-09T11:28:02;99935.91;;;21.25;79.04
17383;BME280;8809;51.892;8.384;2022-09-09T11:30:42;99932.47;;;21.18;80.53
17383;BME280;8809;51.892;8.384;2022-09-09T11:33:31;99930.81;;;21.06;81.28
17383;BME280;8809;51.892;8.384;2022-09-09T11:39:01;99932.47;;;21.18;84.61
17383;BME280;8809;51.892;8.384;2022-09-09T11:41:34;99924.41;;;21.27;86.56
17383;BME280;8809;51.892;8.384;2022-09-09T11:44:10;99936.63;;;21.40;86.21
17383;BME280;8809;51.892;8.384;2022-09-09T11:46:39;99929.41;;;21.50;86.87
17383;BME280;8809;51.892;8.384;2022-09-09T11:49:26;99930.28;;;21.52;84.68
17383;BME280;8809;51.892;8.384;2022-09-09T11:51:53;99927.38;;;21.70;82.89
17383;BME280;8809;51.892;8.384;2022-09-09T11:54:31;99925.47;;;21.78;81.33
17383;BME280;8809;51.892;8.384;2022-09-09T11:56:58;99923.53;;;21.90;77.12
17383;BME280;8809;51.892;8.384;2022-09-09T11:59:33;99925.94;;;22.08;78.52
17383;BME280;8809;51.892;8.384;2022-09-09T12:02:02;99931.84;;;22.25;79.32
17383;BME280;8809;51.892;8.384;2022-09-09T12:04:35;99927.25;;;22.36;75.02
17383;BME280;8809;51.892;8.384;2022-09-09T12:07:19;99932.22;;;22.54;76.28
17383;BME280;8809;51.892;8.384;2022-09-09T12:09:51;99921.38;;;22.68;75.00
17383;BME280;8809;51.892;8.384;2022-09-09T12:12:25;99924.97;;;22.64;71.69
17383;BME280;8809;51.892;8.384;2022-09-09T12:17:47;99921.50;;;22.59;71.34
17383;BME280;8809;51.892;8.384;2022-09-09T12:20:17;99910.50;;;22.80;74.31
17383;BME280;8809;51.892;8.384;2022-09-09T12:22:56;99908.66;;;22.84;72.38
17383;BME280;8809;51.892;8.384;2022-09-09T12:25:31;99920.03;;;22.92;72.38
17383;BME280;8809;51.892;8.384;2022-09-09T12:28:08;99911.34;;;22.84;70.11
17383;BME280;8809;51.892;8.384;2022-09-09T12:30:43;99912.84;;;22.97;69.30
17383;BME280;8809;51.892;8.384;2022-09-09T12:33:17;99911.88;;;23.01;70.00
17383;BME280;8809;51.892;8.384;2022-09-09T12:35:47;99907.97;;;23.17;71.31
17383;BME280;8809;51.892;8.384;2022-09-09T12:38:24;99904.44;;;23.17;69.85
17383;BME280;8809;51.892;8.384;2022-09-09T12:40:55;99914.25;;;23.16;68.82
17383;BME280;8809;51.892;8.384;2022-09-09T12:43:24;99907.38;;;23.05;69.45
17383;BME280;8809;51.892;8.384;2022-09-09T12:45:54;99908.56;;;22.88;66.77
17383;BME280;8809;51.892;8.384;2022-09-09T12:48:28;99915.94;;;22.73;68.54
17383;BME280;8809;51.892;8.384;2022-09-09T12:50:57;99917.91;;;22.63;69.97
17383;BME280;8809;51.892;8.384;2022-09-09T12:53:29;99920.94;;;22.40;67.01
17383;BME280;8809;51.892;8.384;2022-09-09T12:55:58;99915.75;;;22.34;68.81
17383;BME280;8809;51.892;8.384;2022-09-09T12:58:26;99918.53;;;22.27;70.16
17383;BME280;8809;51.892;8.384;2022-09-09T13:01:00;99932.13;;;22.10;71.31
17383;BME280;8809;51.892;8.384;2022-09-09T13:03:31;99930.63;;;21.91;73.25
17383;BME280;8809;51.892;8.384;2022-09-09T13:05:59;99922.06;;;21.70;75.95
17383;BME280;8809;51.892;8.384;2022-09-09T13:08:37;99924.69;;;21.72;75.70
17383;BME280;8809;51.892;8.384;2022-09-09T13:11:07;99919.31;;;21.76;76.33
17383;BME280;8809;51.892;8.384;2022-09-09T13:13:40;99919.88;;;21.97;75.80
17383;BME280;8809;51.892;8.384;2022-09-09T13:16:20;99912.72;;;22.03;74.46
17383;BME280;8809;51.892;8.384;2022-09-09T13:18:48;99912.69;;;22.05;73.07
17383;BME280;8809;51.892;8.384;2022-09-09T13:21:16;99892.16;;;22.16;72.88
17383;BME280;8809;51.892;8.384;2022-09-09T13:23:48;99896.38;;;22.29;73.13
17383;BME280;8809;51.892;8.384;2022-09-09T13:26:23;99895.19;;;22.45;71.86
17383;BME280;8809;51.892;8.384;2022-09-09T13:28:51;99896.84;;;22.49;69.58
17383;BME280;8809;51.892;8.384;2022-09-09T13:31:22;99897.44;;;22.67;69.03
17383;BME280;8809;51.892;8.384;2022-09-09T13:33:49;99890.25;;;22.72;69.29
17383;BME280;8809;51.892;8.384;2022-09-09T13:36:27;99897.19;;;22.82;66.91
17383;BME280;8809;51.892;8.384;2022-09-09T13:38:57;99892.53;;;22.93;68.73
17383;BME280;8809;51.892;8.384;2022-09-09T13:41:27;99882.59;;;23.01;66.69
17383;BME280;8809;51.892;8.384;2022-09-09T13:43:55;99888.56;;;23.14;66.67
17383;BME280;8809;51.892;8.384;2022-09-09T13:46:31;99880.22;;;23.30;68.67